»·PEaware :: N13M KSNA-KSNA

N13M :: KSNA-KSNA

FLIGHT INFORMATION

Flight Status: Arrived
Operator: Privately registered:
United States
More flights under this callsign
Pilot: Zhuojun Y. (28503)
Aircraft: ROBIN DR-400
(DR40)
More flights by this aircraft type
Origin: KSNA John Wayne-Orange Co
United States
Destination: KSNA John Wayne-Orange Co
United States
More flights between these airports :: More routes between these airports
Route: SLI
File this flight plan on PilotEdge
Remarks:
Altitude:
(Current/Filed)
3,000ft
Speed:
(Current/Filed)
110kts
Departed: 10-Apr-20 09:09 PM
Arrived: 10-Apr-20 09:37 PM
Distance/Time
Traveled:
0nm/0:28
Distance/Time
To Go:
Arrived

Flight Plot

Page will automatically refresh every two minutes.


Map Options




Map Legend


Flown Route
Filed Route
Departure Airport
Arrival Airport
Navaid (VOR, NDB)
Fix

Horizontal Profiles

Position Reports

Time Latitude Longitude Heading Altitude Ground
Speed
10-Apr-20 20:37 33.676608 -117.870371 209 59ft 0kts
10-Apr-20 20:38 33.676608 -117.870371 209 59ft 0kts
10-Apr-20 20:39 33.676608 -117.870371 209 59ft 0kts
10-Apr-20 20:40 33.676608 -117.870371 209 59ft 0kts
10-Apr-20 20:41 33.676608 -117.870371 209 59ft 0kts
10-Apr-20 20:42 33.676608 -117.870371 209 59ft 0kts
10-Apr-20 20:43 33.676608 -117.870371 209 59ft 0kts
10-Apr-20 20:44 33.676608 -117.870371 209 59ft 0kts
10-Apr-20 20:45 33.676608 -117.870371 209 59ft 0kts
10-Apr-20 20:46 33.676608 -117.870371 209 59ft 0kts
10-Apr-20 20:47 33.676608 -117.870371 209 59ft 0kts
10-Apr-20 20:48 33.676608 -117.870371 209 59ft 0kts
10-Apr-20 20:49 33.676608 -117.870371 209 59ft 0kts
10-Apr-20 20:50 33.676608 -117.870371 209 59ft 0kts
10-Apr-20 20:51 33.676608 -117.870371 209 59ft 0kts
10-Apr-20 20:52 33.676599 -117.870377 209 59ft 0kts
10-Apr-20 20:53 33.676599 -117.870377 209 59ft 0kts
10-Apr-20 20:54 33.676599 -117.870377 209 59ft 0kts
10-Apr-20 20:55 33.676599 -117.870377 209 59ft 0kts
10-Apr-20 20:56 33.676599 -117.870377 209 59ft 0kts
10-Apr-20 20:57 33.676599 -117.870377 209 59ft 0kts
10-Apr-20 20:58 33.676599 -117.870377 209 59ft 0kts
10-Apr-20 20:59 33.676599 -117.870377 209 59ft 0kts
10-Apr-20 21:00 33.676599 -117.870377 209 59ft 0kts
10-Apr-20 21:01 33.676599 -117.870377 209 59ft 0kts
10-Apr-20 21:02 33.676599 -117.870377 209 59ft 0kts
10-Apr-20 21:03 33.676599 -117.870377 209 59ft 0kts
10-Apr-20 21:04 33.676595 -117.870380 209 59ft 0kts
10-Apr-20 21:05 33.677454 -117.869255 29 59ft 13kts
10-Apr-20 21:06 33.681232 -117.866910 64 59ft 11kts
10-Apr-20 21:07 33.681235 -117.866467 112 59ft 0kts
10-Apr-20 21:08 33.678850 -117.866800 206 59ft 53kts
10-Apr-20 21:09 33.661171 -117.879696 233 782ft 84kts
10-Apr-20 21:10 33.646641 -117.902367 230 1618ft 88kts
10-Apr-20 21:11 33.630556 -117.926399 231 2004ft 96kts
10-Apr-20 21:12 33.637907 -117.946883 19 2449ft 100kts
10-Apr-20 21:13 33.663628 -117.935019 24 2978ft 101kts
10-Apr-20 21:14 33.689724 -117.922206 22 2998ft 102kts
10-Apr-20 21:15 33.715327 -117.909672 21 2937ft 100kts
10-Apr-20 21:16 33.741096 -117.897826 21 2992ft 99kts
10-Apr-20 21:17 33.766788 -117.885001 22 2965ft 102kts
10-Apr-20 21:18 33.792844 -117.872288 23 2978ft 99kts
10-Apr-20 21:19 33.818588 -117.859775 20 2975ft 100kts
10-Apr-20 21:20 33.844341 -117.847229 21 2979ft 100kts
10-Apr-20 21:21 33.869690 -117.833920 20 2985ft 100kts
10-Apr-20 21:22 33.895470 -117.821543 19 2998ft 99kts
10-Apr-20 21:23 33.921318 -117.809372 23 2994ft 100kts
10-Apr-20 21:24 33.940096 -117.789062 108 2986ft 101kts
10-Apr-20 21:25 33.927933 -117.759156 150 2975ft 102kts
10-Apr-20 21:26 33.900603 -117.755746 183 2952ft 100kts
10-Apr-20 21:27 33.872865 -117.757441 181 2969ft 99kts
10-Apr-20 21:28 33.845680 -117.762299 195 3010ft 99kts
10-Apr-20 21:29 33.820567 -117.777557 212 2975ft 104kts
10-Apr-20 21:30 33.794499 -117.793415 204 2674ft 103kts
10-Apr-20 21:31 33.770499 -117.807643 210 1989ft 94kts
10-Apr-20 21:32 33.748485 -117.821511 209 1528ft 86kts
10-Apr-20 21:33 33.727660 -117.834921 208 1084ft 76kts
10-Apr-20 21:34 33.709528 -117.847079 207 673ft 74kts
10-Apr-20 21:35 33.690948 -117.859184 207 293ft 76kts
10-Apr-20 21:36 33.675096 -117.869169 214 59ft 24kts
10-Apr-20 21:37 33.674247 -117.870887 296 59ft 0kts
10-Apr-20 21:38 33.675928 -117.871153 23 59ft 10kts
10-Apr-20 21:39 33.676021 -117.871101 24 59ft 0kts
10-Apr-20 21:40 33.676021 -117.871101 24 59ft 0kts
10-Apr-20 21:41 33.676021 -117.871101 24 59ft 0kts

Navigation Log

Ident Type
Flight plan parsing failed, navigation log unavailable